Time;durP1;ratioP1;P1;durP2;ratioP2;P2;SDS_P1;SDS_P2;PMS_P1;PMS_P2;Temp;Humidity;BMP_temperature;BMP_pressure;BME280_temperature;BME280_humidity;BME280_pressure;Samples;Min_cycle;Max_cycle;Signal;HPM_P1;HPM_P2
2022/05/09 00:02:11;;;;;;;6.28;1.52;;;11.90;66.40;;;;;;5053329;28;20021;-66
2022/05/09 00:04:37;;;;;;;4.80;1.13;;;11.80;66.70;;;;;;5052980;28;20029;-66
2022/05/09 00:07:04;;;;;;;6.75;1.30;;;11.70;66.90;;;;;;5052785;28;20514;-66
2022/05/09 00:09:30;;;;;;;5.80;1.55;;;11.60;67.20;;;;;;5052920;28;20124;-67
2022/05/09 00:11:55;;;;;;;3.90;1.23;;;11.60;67.30;;;;;;5052860;28;20127;-66
2022/05/09 00:14:21;;;;;;;6.63;2.13;;;11.60;67.70;;;;;;5052750;28;20040;-66
2022/05/09 00:16:46;;;;;;;8.85;1.33;;;11.60;67.80;;;;;;5051598;28;20021;-67
2022/05/09 00:19:17;;;;;;;3.90;1.67;;;11.50;67.80;;;;;;5052499;28;20049;-66
2022/05/09 00:21:44;;;;;;;4.78;1.00;;;11.50;67.90;;;;;;5052884;28;20365;-66
2022/05/09 00:24:14;;;;;;;4.18;1.17;;;11.50;68.00;;;;;;5052758;28;20120;-66
2022/05/09 00:26:41;;;;;;;3.72;1.38;;;11.40;68.00;;;;;;5052564;28;20021;-66
2022/05/09 00:29:08;;;;;;;5.88;1.65;;;11.40;68.40;;;;;;5052353;28;20029;-66
2022/05/09 00:31:35;;;;;;;8.10;1.50;;;11.40;68.50;;;;;;5052501;28;20040;-66
2022/05/09 00:34:01;;;;;;;6.30;1.63;;;11.30;68.80;;;;;;5052210;28;20538;-67
2022/05/09 00:36:26;;;;;;;6.07;1.65;;;11.30;69.10;;;;;;5052291;28;20401;-66
2022/05/09 00:38:53;;;;;;;8.82;1.33;;;11.20;69.20;;;;;;5052259;28;20029;-66
2022/05/09 00:41:28;;;;;;;7.30;1.45;;;11.20;69.40;;;;;;5052764;28;20370;-66
2022/05/09 00:43:55;;;;;;;4.68;1.42;;;11.10;70.00;;;;;;5052484;28;20439;-67
2022/05/09 00:46:21;;;;;;;9.68;1.70;;;11.10;70.10;;;;;;5052161;28;20025;-66
2022/05/09 00:48:47;;;;;;;7.25;1.92;;;11.10;70.70;;;;;;5052223;28;20451;-67
2022/05/09 00:51:18;;;;;;;5.38;1.40;;;11.00;71.40;;;;;;5052321;28;20108;-66
2022/05/09 00:53:44;;;;;;;7.22;1.85;;;11.00;71.40;;;;;;5050873;28;20523;-66
2022/05/09 00:56:16;;;;;;;7.45;2.70;;;10.90;71.60;;;;;;5050928;28;20033;-66
2022/05/09 00:58:54;;;;;;;5.13;1.75;;;10.90;72.10;;;;;;5052004;28;20025;-66
2022/05/09 01:01:21;;;;;;;10.77;1.95;;;10.90;72.10;;;;;;5052167;28;20028;-66
2022/05/09 01:04:04;;;;;;;6.20;2.05;;;10.80;72.40;;;;;;5052044;28;20025;-66
2022/05/09 01:06:29;;;;;;;6.70;1.80;;;10.80;72.70;;;;;;5052161;28;20036;-66
2022/05/09 01:08:55;;;;;;;8.02;2.08;;;10.70;72.90;;;;;;5051701;28;20032;-66
2022/05/09 01:11:24;;;;;;;5.35;1.80;;;10.70;73.10;;;;;;5051891;28;20504;-66
2022/05/09 01:13:57;;;;;;;8.30;2.60;;;10.70;73.10;;;;;;5051918;28;20033;-67
2022/05/09 01:16:24;;;;;;;7.03;1.63;;;10.60;73.50;;;;;;5052241;28;20252;-67
2022/05/09 01:18:49;;;;;;;6.10;1.80;;;10.60;73.90;;;;;;5051686;28;20037;-66
2022/05/09 01:21:32;;;;;;;7.72;1.90;;;10.50;74.00;;;;;;5052095;28;20028;-67
2022/05/09 01:23:58;;;;;;;4.45;2.05;;;10.50;74.10;;;;;;5051562;28;20531;-67
2022/05/09 01:26:24;;;;;;;6.82;1.83;;;10.40;74.60;;;;;;5051928;28;20037;-67
2022/05/09 01:28:50;;;;;;;6.68;1.83;;;10.40;74.80;;;;;;5051822;28;20075;-67
2022/05/09 01:31:18;;;;;;;6.85;1.90;;;10.40;75.00;;;;;;5051978;28;20025;-66
2022/05/09 01:33:49;;;;;;;6.80;2.13;;;10.40;75.10;;;;;;5050517;28;20029;-67
2022/05/09 01:36:17;;;;;;;6.78;1.75;;;10.40;75.30;;;;;;5051457;28;20037;-66
2022/05/09 01:38:57;;;;;;;6.38;2.20;;;10.30;75.40;;;;;;5052062;28;20366;-66
2022/05/09 01:41:24;;;;;;;7.10;2.35;;;10.30;75.60;;;;;;5052151;28;20163;-66
2022/05/09 01:43:57;;;;;;;11.73;2.30;;;10.30;75.90;;;;;;5055601;28;20033;-66
2022/05/09 01:46:26;;;;;;;9.27;2.50;;;10.20;76.00;;;;;;5055637;28;20024;-66
2022/05/09 01:51:38;;;;;;;6.35;2.13;;;10.20;76.20;;;;;;5055800;28;20086;-66
2022/05/09 01:54:04;;;;;;;7.75;2.65;;;10.20;76.60;;;;;;5070672;28;20048;-66
2022/05/09 01:56:33;;;;;;;11.27;2.20;;;10.10;76.90;;;;;;5055439;28;20028;-66
2022/05/09 01:59:00;;;;;;;6.15;1.80;;;10.10;77.00;;;;;;5055335;28;20017;-67
2022/05/09 02:01:29;;;;;;;6.25;2.83;;;10.10;77.10;;;;;;5055235;28;20024;-66
2022/05/09 02:03:55;;;;;;;6.90;2.13;;;10.10;77.00;;;;;;5055398;28;20031;-66
2022/05/09 02:06:21;;;;;;;6.03;1.85;;;10.10;77.20;;;;;;5055240;28;20029;-66
2022/05/09 02:08:47;;;;;;;5.35;1.95;;;10.00;77.20;;;;;;5055060;28;20449;-67
2022/05/09 02:11:13;;;;;;;8.82;2.35;;;10.00;77.40;;;;;;5055118;28;20424;-66
2022/05/09 02:13:39;;;;;;;8.65;2.78;;;10.00;77.90;;;;;;5054966;28;20029;-66
2022/05/09 02:16:05;;;;;;;6.32;2.17;;;10.00;78.10;;;;;;5054910;28;20025;-66
2022/05/09 02:18:32;;;;;;;9.45;2.80;;;9.90;78.30;;;;;;5054910;28;20025;-66
2022/05/09 02:20:58;;;;;;;9.32;2.40;;;9.90;78.70;;;;;;5054895;28;20061;-66
2022/05/09 02:23:23;;;;;;;6.82;2.85;;;9.80;78.60;;;;;;5054836;28;20057;-66
2022/05/09 02:25:49;;;;;;;11.75;2.70;;;9.80;78.60;;;;;;5070226;28;20029;-66
2022/05/09 02:28:15;;;;;;;6.10;2.38;;;9.80;78.60;;;;;;5054899;28;20029;-66
2022/05/09 02:30:41;;;;;;;8.02;2.00;;;9.80;78.80;;;;;;5054720;28;20365;-66
2022/05/09 02:33:09;;;;;;;11.15;2.22;;;9.80;78.70;;;;;;5054712;28;20028;-66
2022/05/09 02:35:36;;;;;;;7.65;2.47;;;9.80;78.80;;;;;;5069920;28;20453;-66
2022/05/09 02:38:02;;;;;;;6.82;2.50;;;9.70;78.80;;;;;;5054713;28;20024;-66
2022/05/09 02:40:28;;;;;;;6.28;2.42;;;9.70;79.40;;;;;;5054442;28;20029;-66
2022/05/09 02:42:54;;;;;;;6.80;2.58;;;9.70;79.60;;;;;;5054588;28;20074;-66
2022/05/09 02:45:20;;;;;;;5.63;2.50;;;9.60;79.60;;;;;;5069602;28;20062;-66
2022/05/09 02:47:46;;;;;;;7.65;3.03;;;9.60;79.90;;;;;;5054558;28;20025;-67
2022/05/09 02:50:14;;;;;;;6.28;2.38;;;9.50;80.20;;;;;;5054482;28;20040;-66
2022/05/09 02:52:40;;;;;;;6.60;2.40;;;9.50;80.40;;;;;;5054418;28;20056;-67
2022/05/09 02:55:08;;;;;;;10.13;2.80;;;9.50;80.80;;;;;;5054267;28;20469;-66
2022/05/09 02:57:34;;;;;;;8.40;2.78;;;9.40;80.80;;;;;;5054232;28;20374;-66
2022/05/09 03:00:00;;;;;;;8.13;2.97;;;9.40;81.00;;;;;;5054547;28;20037;-69
2022/05/09 03:02:26;;;;;;;8.38;2.55;;;9.40;81.00;;;;;;5054315;28;20481;-66
2022/05/09 03:04:52;;;;;;;6.03;2.50;;;9.40;81.20;;;;;;5054124;28;20099;-66
2022/05/09 03:07:19;;;;;;;7.38;2.47;;;9.40;81.40;;;;;;5053971;28;20493;-67
2022/05/09 03:09:47;;;;;;;10.02;2.63;;;9.30;81.50;;;;;;5053989;28;20029;-66
2022/05/09 03:12:13;;;;;;;8.32;2.83;;;9.30;81.90;;;;;;5053995;28;20052;-66
2022/05/09 03:14:39;;;;;;;8.63;2.60;;;9.20;82.10;;;;;;5053731;28;20108;-66
2022/05/09 03:17:06;;;;;;;6.93;2.05;;;9.20;82.20;;;;;;5053881;28;20457;-66
2022/05/09 03:19:32;;;;;;;6.95;2.05;;;9.20;82.30;;;;;;5053722;28;20056;-67
2022/05/09 03:21:57;;;;;;;7.85;2.65;;;9.20;82.20;;;;;;5069156;28;20029;-66
2022/05/09 03:24:23;;;;;;;7.60;2.97;;;9.20;82.30;;;;;;5054088;28;20079;-66
2022/05/09 03:26:49;;;;;;;10.20;2.78;;;9.20;82.50;;;;;;5068984;28;20079;-66
2022/05/09 03:29:16;;;;;;;9.80;4.28;;;9.20;82.80;;;;;;5052552;28;20259;-66
2022/05/09 03:31:42;;;;;;;6.82;3.05;;;9.10;82.90;;;;;;5053585;28;20053;-66
2022/05/09 03:34:07;;;;;;;9.20;3.30;;;9.10;83.20;;;;;;5053638;28;20060;-66
2022/05/09 03:36:33;;;;;;;6.07;2.92;;;9.10;83.30;;;;;;5053570;28;20079;-66
2022/05/09 03:38:59;;;;;;;6.35;3.00;;;9.10;83.50;;;;;;5053514;28;20500;-66
2022/05/09 03:41:25;;;;;;;7.18;3.20;;;9.00;83.70;;;;;;5053218;28;20099;-66
2022/05/09 03:43:50;;;;;;;9.25;3.22;;;9.00;83.80;;;;;;5053340;28;20469;-66
2022/05/09 03:46:17;;;;;;;6.50;3.60;;;9.00;84.00;;;;;;5053225;28;20405;-67
2022/05/09 03:48:43;;;;;;;5.30;2.67;;;9.00;84.10;;;;;;5053323;28;20036;-67
2022/05/09 03:51:08;;;;;;;8.90;2.85;;;8.90;84.10;;;;;;5053689;28;20025;-66
2022/05/09 03:53:35;;;;;;;7.57;3.25;;;8.90;84.10;;;;;;5053205;28;20029;-66
2022/05/09 03:56:01;;;;;;;8.70;2.50;;;8.90;84.10;;;;;;5053124;28;20388;-67
2022/05/09 03:58:27;;;;;;;4.90;2.00;;;8.90;84.10;;;;;;5053159;28;20021;-66
2022/05/09 04:00:53;;;;;;;5.05;2.13;;;8.90;84.10;;;;;;5052986;28;20100;-66
2022/05/09 04:03:19;;;;;;;6.00;2.30;;;8.90;84.10;;;;;;5053047;28;20159;-66
2022/05/09 04:05:45;;;;;;;7.30;2.55;;;8.90;84.10;;;;;;5052453;28;20476;-66
2022/05/09 04:08:16;;;;;;;5.93;2.47;;;8.80;84.10;;;;;;5052982;28;20029;-66
2022/05/09 04:10:42;;;;;;;6.35;2.45;;;8.80;84.10;;;;;;5053206;28;20025;-66
2022/05/09 04:13:08;;;;;;;10.38;2.53;;;8.80;84.10;;;;;;5052546;28;20082;-67
2022/05/09 04:18:21;;;;;;;4.68;2.40;;;8.80;84.10;;;;;;5052306;28;20039;-67
2022/05/09 04:20:48;;;;;;;3.40;1.70;;;8.80;84.10;;;;;;5052435;28;20516;-66
2022/05/09 04:23:15;;;;;;;6.28;2.00;;;8.80;84.00;;;;;;5052736;28;20032;-66
2022/05/09 04:25:41;;;;;;;8.50;2.10;;;8.80;84.00;;;;;;5052563;28;20451;-66
2022/05/09 04:28:07;;;;;;;6.75;2.33;;;8.80;84.10;;;;;;5052517;28;20039;-66
2022/05/09 04:30:35;;;;;;;7.57;2.88;;;8.80;84.00;;;;;;5052602;28;20025;-66
2022/05/09 04:33:01;;;;;;;5.28;2.25;;;8.80;84.20;;;;;;5052442;28;20556;-66
2022/05/09 04:35:28;;;;;;;6.75;2.35;;;8.80;84.30;;;;;;5052323;28;20028;-66
2022/05/09 04:37:54;;;;;;;7.07;2.20;;;8.80;84.30;;;;;;5052507;28;20017;-66
2022/05/09 04:40:23;;;;;;;5.65;2.00;;;8.80;84.30;;;;;;5052265;28;20389;-66
2022/05/09 04:42:48;;;;;;;7.22;2.50;;;8.90;84.40;;;;;;5052364;28;20020;-66
2022/05/09 04:45:15;;;;;;;6.30;2.53;;;8.90;84.40;;;;;;5052238;28;20078;-66
2022/05/09 04:47:42;;;;;;;5.07;2.30;;;8.90;84.40;;;;;;5052509;28;20017;-66
2022/05/09 04:50:10;;;;;;;4.93;2.25;;;8.90;85.00;;;;;;5052200;28;20025;-66
2022/05/09 04:52:36;;;;;;;7.03;2.80;;;9.00;84.40;;;;;;5052267;28;20388;-66
2022/05/09 04:55:03;;;;;;;6.07;2.25;;;9.00;84.40;;;;;;5052279;28;20021;-66
2022/05/09 04:57:28;;;;;;;8.70;3.70;;;9.00;84.50;;;;;;5067704;28;20048;-66
2022/05/09 04:59:54;;;;;;;6.07;2.45;;;8.90;84.60;;;;;;5052319;28;20481;-66
2022/05/09 05:02:19;;;;;;;6.30;3.15;;;9.00;84.70;;;;;;5067104;28;20021;-66
2022/05/09 05:04:45;;;;;;;6.97;3.60;;;9.00;84.90;;;;;;5051784;28;20392;-66
2022/05/09 05:07:10;;;;;;;12.10;3.70;;;9.00;85.30;;;;;;5056088;28;20040;-66
2022/05/09 05:09:36;;;;;;;9.20;3.58;;;9.00;85.60;;;;;;5058782;28;20033;-66
2022/05/09 05:12:03;;;;;;;8.23;3.40;;;9.00;85.90;;;;;;5055603;28;20021;-66
2022/05/09 05:14:28;;;;;;;9.98;4.07;;;9.00;86.20;;;;;;5050244;28;20021;-66
2022/05/09 05:16:59;;;;;;;9.82;4.68;;;9.10;86.50;;;;;;5054638;28;20465;-66
2022/05/09 05:19:31;;;;;;;11.10;4.10;;;9.10;87.00;;;;;;5056526;28;20049;-66
2022/05/09 05:21:57;;;;;;;11.35;3.90;;;9.10;87.10;;;;;;5057102;28;20063;-66
2022/05/09 05:24:23;;;;;;;8.98;3.83;;;9.10;87.30;;;;;;5062567;28;20017;-66
2022/05/09 05:26:49;;;;;;;9.82;3.50;;;9.20;87.40;;;;;;5069843;28;20378;-66
2022/05/09 05:29:15;;;;;;;9.82;3.35;;;9.20;87.30;;;;;;5054275;28;20104;-66
2022/05/09 05:31:41;;;;;;;14.35;4.45;;;9.20;87.30;;;;;;5057121;28;20481;-66
2022/05/09 05:34:06;;;;;;;10.73;4.22;;;9.30;87.60;;;;;;5054269;28;20064;-66
2022/05/09 05:36:31;;;;;;;10.70;4.28;;;9.30;87.50;;;;;;5054150;28;20438;-66
2022/05/09 05:38:57;;;;;;;9.15;3.75;;;9.30;87.70;;;;;;5057095;28;20066;-66
2022/05/09 05:41:22;;;;;;;9.07;3.88;;;9.40;87.70;;;;;;5053938;28;20017;-66
2022/05/09 05:43:49;;;;;;;7.93;4.07;;;9.40;87.90;;;;;;5053470;28;20021;-66
2022/05/09 05:46:14;;;;;;;7.55;3.85;;;9.50;87.80;;;;;;5053786;28;20079;-66
2022/05/09 05:48:41;;;;;;;7.75;4.05;;;9.50;87.70;;;;;;5052816;28;20419;-67
2022/05/09 05:51:07;;;;;;;8.73;3.45;;;9.60;87.70;;;;;;5053765;28;20051;-66
2022/05/09 05:53:34;;;;;;;10.95;3.90;;;9.60;87.60;;;;;;5053577;28;20480;-66
2022/05/09 05:55:59;;;;;;;7.18;3.65;;;9.70;87.60;;;;;;5053670;28;20423;-67
2022/05/09 05:58:27;;;;;;;8.18;3.70;;;9.70;87.70;;;;;;5053519;28;20029;-66
2022/05/09 06:00:53;;;;;;;7.03;3.83;;;9.80;87.70;;;;;;5053305;28;20051;-67
2022/05/09 06:03:20;;;;;;;7.90;3.92;;;9.80;87.60;;;;;;5053186;28;20116;-67
2022/05/09 06:05:46;;;;;;;7.70;4.15;;;9.90;87.50;;;;;;5053145;28;20448;-66
2022/05/09 06:08:12;;;;;;;11.82;4.65;;;9.90;87.40;;;;;;5053249;28;20017;-66
2022/05/09 06:10:37;;;;;;;6.28;3.47;;;10.00;87.60;;;;;;5053327;28;20376;-67
2022/05/09 06:13:04;;;;;;;11.10;4.53;;;10.00;87.50;;;;;;5053318;28;20396;-66
2022/05/09 06:15:32;;;;;;;8.38;3.80;;;10.10;87.50;;;;;;5052780;28;20017;-67
2022/05/09 06:17:59;;;;;;;11.40;4.70;;;10.20;87.40;;;;;;5059436;28;20117;-67
2022/05/09 06:20:31;;;;;;;12.23;3.90;;;10.20;87.50;;;;;;5053195;28;20037;-66
2022/05/09 06:22:58;;;;;;;8.98;4.50;;;10.30;87.40;;;;;;5051220;28;20040;-66
2022/05/09 06:25:25;;;;;;;10.05;3.95;;;10.30;87.40;;;;;;5053527;28;20463;-66
2022/05/09 06:27:51;;;;;;;6.97;3.80;;;10.40;87.30;;;;;;5052371;28;20370;-66
2022/05/09 06:30:18;;;;;;;8.57;3.53;;;10.50;87.00;;;;;;5052802;28;20103;-66
2022/05/09 06:32:43;;;;;;;7.53;3.35;;;10.50;86.80;;;;;;5052930;28;20426;-66
2022/05/09 06:35:12;;;;;;;7.07;3.08;;;10.60;86.60;;;;;;5052738;28;20329;-66
2022/05/09 06:37:38;;;;;;;8.48;3.60;;;10.70;86.40;;;;;;5052819;28;20017;-66
2022/05/09 06:40:06;;;;;;;7.10;3.08;;;10.80;86.20;;;;;;5053269;28;20024;-66
2022/05/09 06:42:33;;;;;;;12.32;3.58;;;10.80;86.00;;;;;;5052610;28;20099;-67
2022/05/09 06:44:58;;;;;;;7.47;3.28;;;10.90;85.80;;;;;;5051434;28;20032;-67
2022/05/09 06:47:24;;;;;;;6.40;2.85;;;11.00;85.60;;;;;;5053409;28;20087;-66
2022/05/09 06:49:49;;;;;;;7.10;3.50;;;11.10;85.40;;;;;;5054623;28;20527;-67
2022/05/09 06:52:15;;;;;;;10.52;3.58;;;11.10;85.10;;;;;;5053362;28;20036;-67
2022/05/09 06:54:40;;;;;;;6.90;3.10;;;11.20;85.00;;;;;;5052716;28;20033;-66
2022/05/09 06:57:06;;;;;;;5.85;3.38;;;11.30;84.70;;;;;;5053281;28;20117;-67
2022/05/09 06:59:33;;;;;;;6.30;3.00;;;11.30;84.50;;;;;;5052055;28;20029;-66
2022/05/09 07:01:59;;;;;;;8.32;2.85;;;11.40;84.30;;;;;;5053237;28;20032;-67
2022/05/09 07:04:25;;;;;;;5.97;2.80;;;11.50;84.10;;;;;;5052475;28;20040;-67
2022/05/09 07:06:50;;;;;;;6.93;2.85;;;11.60;83.90;;;;;;5053611;28;20506;-67
2022/05/09 07:09:16;;;;;;;6.07;2.97;;;11.60;83.60;;;;;;5052806;28;20276;-66
2022/05/09 07:11:42;;;;;;;4.50;2.25;;;11.70;83.40;;;;;;5069295;28;20025;-66
2022/05/09 07:14:09;;;;;;;4.60;2.13;;;11.80;83.20;;;;;;5052492;28;20496;-66
2022/05/09 07:16:36;;;;;;;5.68;2.70;;;11.90;82.90;;;;;;5051507;28;20047;-66
2022/05/09 07:19:03;;;;;;;5.45;2.33;;;12.00;82.70;;;;;;5051815;28;20033;-66
2022/05/09 07:21:29;;;;;;;8.52;3.97;;;12.10;82.50;;;;;;5051853;28;20028;-67
2022/05/09 07:23:54;;;;;;;7.53;3.33;;;12.20;82.40;;;;;;5052133;28;20025;-66
2022/05/09 07:26:20;;;;;;;7.80;3.13;;;12.30;82.00;;;;;;5051798;28;20040;-66
2022/05/09 07:28:45;;;;;;;5.45;2.25;;;12.40;81.90;;;;;;5049385;28;20025;-66
2022/05/09 07:31:12;;;;;;;8.65;2.88;;;12.40;81.60;;;;;;5051888;28;20040;-66
2022/05/09 07:33:37;;;;;;;8.38;2.78;;;12.50;81.00;;;;;;5051941;28;20508;-66
2022/05/09 07:36:04;;;;;;;9.15;2.67;;;12.70;79.40;;;;;;5051430;28;20017;-68
2022/05/09 07:38:30;;;;;;;5.40;1.90;;;12.80;77.60;;;;;;5051734;28;20028;-66
2022/05/09 07:40:59;;;;;;;7.40;2.80;;;13.00;77.40;;;;;;5050982;28;20013;-66
2022/05/09 07:43:26;;;;;;;7.00;2.00;;;13.10;74.40;;;;;;5051185;28;20078;-66
2022/05/09 07:45:54;;;;;;;6.22;2.53;;;13.30;74.20;;;;;;5065039;28;20473;-66
2022/05/09 07:48:20;;;;;;;9.15;3.17;;;13.30;73.80;;;;;;5051704;28;20531;-67
2022/05/09 07:50:46;;;;;;;7.10;2.78;;;13.50;73.40;;;;;;5033263;28;20025;-67
2022/05/09 07:53:18;;;;;;;10.27;2.75;;;13.60;71.30;;;;;;5057483;28;20044;-67
2022/05/09 07:55:44;;;;;;;10.75;2.55;;;13.80;69.90;;;;;;5049510;28;20048;-67
2022/05/09 07:58:10;;;;;;;6.40;2.20;;;14.00;69.10;;;;;;5051643;28;20488;-67
2022/05/09 08:00:37;;;;;;;6.18;2.30;;;14.10;68.60;;;;;;5054129;28;20021;-69
2022/05/09 08:03:04;;;;;;;11.20;2.75;;;14.20;68.70;;;;;;5051817;28;20025;-67
2022/05/09 08:05:30;;;;;;;5.97;2.25;;;14.40;67.20;;;;;;5051076;28;20036;-67
2022/05/09 08:07:56;;;;;;;8.27;2.42;;;14.50;66.90;;;;;;5050765;28;20017;-67
2022/05/09 08:10:22;;;;;;;6.78;2.10;;;14.60;66.70;;;;;;5051344;28;20029;-67
2022/05/09 08:12:48;;;;;;;5.60;2.67;;;14.80;66.70;;;;;;5051366;28;20522;-67
2022/05/09 08:15:16;;;;;;;8.20;2.20;;;14.90;66.70;;;;;;5051083;28;20476;-67
2022/05/09 08:17:44;;;;;;;4.78;2.03;;;15.00;67.10;;;;;;5052519;28;20021;-66
2022/05/09 08:20:10;;;;;;;5.45;1.75;;;15.10;66.60;;;;;;5052119;28;20063;-66
2022/05/09 08:22:36;;;;;;;8.77;1.50;;;15.10;66.20;;;;;;5052065;28;20040;-67
2022/05/09 08:25:05;;;;;;;4.07;1.27;;;15.20;66.40;;;;;;5052898;28;20021;-67
2022/05/09 08:27:31;;;;;;;8.95;1.30;;;15.30;66.60;;;;;;5052281;28;20493;-66
2022/05/09 08:29:58;;;;;;;3.60;1.25;;;15.40;66.60;;;;;;5052575;28;20033;-67
2022/05/09 08:32:25;;;;;;;5.20;1.63;;;15.50;66.30;;;;;;5052234;28;20027;-66
2022/05/09 08:34:51;;;;;;;3.42;1.48;;;15.60;65.10;;;;;;5052161;28;20029;-67
2022/05/09 08:37:18;;;;;;;6.68;1.75;;;15.70;64.90;;;;;;5052097;28;20734;-66
2022/05/09 08:39:44;;;;;;;3.33;1.27;;;15.80;64.30;;;;;;5052395;28;20381;-66
2022/05/09 08:42:15;;;;;;;4.68;1.83;;;15.90;64.40;;;;;;5052433;28;20044;-66
2022/05/09 08:45:03;;;;;;;3.63;1.00;;;16.00;64.40;;;;;;5052189;28;20021;-66
2022/05/09 08:48:06;;;;;;;4.57;1.20;;;16.20;64.20;;;;;;5052056;28;20393;-67
2022/05/09 08:50:37;;;;;;;5.70;1.52;;;16.30;64.20;;;;;;5051372;28;20052;-66
2022/05/09 08:53:07;;;;;;;5.82;1.40;;;16.30;63.90;;;;;;5052082;28;20052;-67
2022/05/09 08:55:39;;;;;;;3.90;1.33;;;16.40;63.70;;;;;;5052182;28;20100;-67
2022/05/09 08:58:37;;;;;;;5.95;2.00;;;16.50;63.70;;;;;;5052154;28;20067;-66
2022/05/09 09:01:15;;;;;;;6.68;2.20;;;16.60;63.60;;;;;;5052099;28;20023;-67
2022/05/09 09:03:45;;;;;;;4.55;1.55;;;16.70;63.20;;;;;;5051869;28;20044;-66
2022/05/09 09:06:32;;;;;;;3.70;1.20;;;16.80;63.20;;;;;;5052034;28;20032;-66
2022/05/09 09:09:02;;;;;;;8.18;2.40;;;16.90;63.20;;;;;;5067425;28;20029;-66
2022/05/09 09:11:51;;;;;;;6.40;2.55;;;17.00;63.00;;;;;;5051822;28;20387;-66
2022/05/09 09:14:26;;;;;;;8.32;1.98;;;17.10;62.50;;;;;;5051936;28;20635;-66
2022/05/09 09:17:00;;;;;;;6.18;2.13;;;17.20;62.50;;;;;;5051849;28;20043;-66
2022/05/09 09:20:04;;;;;;;4.82;1.73;;;17.30;62.60;;;;;;5051613;28;20072;-66
2022/05/09 09:22:51;;;;;;;4.30;1.50;;;17.40;62.60;;;;;;5052001;28;20366;-66
2022/05/09 09:25:38;;;;;;;7.13;1.83;;;17.50;62.10;;;;;;5051746;28;20128;-66
2022/05/09 09:28:15;;;;;;;5.82;2.60;;;17.60;61.50;;;;;;5051794;28;20103;-66
2022/05/09 09:30:43;;;;;;;5.45;1.35;;;17.70;61.50;;;;;;5051769;28;20029;-67
2022/05/09 09:33:12;;;;;;;6.70;1.83;;;17.80;61.20;;;;;;5051604;28;20061;-67
2022/05/09 09:36:00;;;;;;;6.35;1.85;;;17.90;61.00;;;;;;5051571;28;20021;-66
2022/05/09 09:38:45;;;;;;;5.85;1.48;;;18.00;59.70;;;;;;5067074;28;20071;-66
2022/05/09 09:41:31;;;;;;;7.93;1.75;;;18.10;59.50;;;;;;5051568;28;20021;-66
2022/05/09 09:44:09;;;;;;;4.15;1.77;;;18.20;59.10;;;;;;5051463;28;20035;-66
2022/05/09 09:47:08;;;;;;;7.13;1.92;;;18.30;58.40;;;;;;5051653;28;20025;-66
2022/05/09 09:49:40;;;;;;;6.55;1.88;;;18.40;57.50;;;;;;5051574;28;20144;-67
2022/05/09 09:52:25;;;;;;;5.75;1.38;;;18.40;57.70;;;;;;5066806;28;20128;-67
2022/05/09 09:55:09;;;;;;;3.15;1.50;;;18.60;57.80;;;;;;5031393;28;20501;-67
2022/05/09 09:57:37;;;;;;;3.75;1.50;;;18.70;57.40;;;;;;5039226;28;20544;-67
2022/05/09 10:00:20;;;;;;;6.13;1.70;;;18.80;57.60;;;;;;5049918;28;20017;-66
2022/05/09 10:02:47;;;;;;;4.78;1.80;;;18.90;57.10;;;;;;5052482;28;20052;-67
2022/05/09 10:05:16;;;;;;;5.00;2.10;;;18.90;56.60;;;;;;5054877;28;20636;-67
2022/05/09 10:07:45;;;;;;;7.90;1.52;;;19.00;56.20;;;;;;5053854;28;20481;-67
2022/05/09 10:10:15;;;;;;;6.90;2.25;;;19.00;56.30;;;;;;5054857;28;20056;-67
2022/05/09 10:12:52;;;;;;;4.75;1.70;;;19.10;55.40;;;;;;5054238;28;20033;-66
2022/05/09 10:15:36;;;;;;;4.65;1.58;;;19.20;55.60;;;;;;5054953;28;20025;-66
2022/05/09 10:18:23;;;;;;;4.03;1.60;;;19.30;55.70;;;;;;5054660;28;20472;-67
2022/05/09 10:20:51;;;;;;;4.65;1.60;;;19.40;55.20;;;;;;5054486;28;20059;-66
2022/05/09 10:26:28;;;;;;;4.03;1.40;;;19.60;55.70;;;;;;5055093;28;20558;-67
2022/05/09 10:28:58;;;;;;;5.82;1.40;;;19.70;55.60;;;;;;5054861;28;20071;-67
2022/05/09 10:31:30;;;;;;;4.65;1.40;;;19.80;55.60;;;;;;5054793;28;20033;-66
2022/05/09 10:34:04;;;;;;;3.67;1.65;;;20.00;55.40;;;;;;5054294;28;20029;-66
2022/05/09 10:36:43;;;;;;;3.40;1.30;;;20.10;54.90;;;;;;5054347;28;20091;-67
2022/05/09 10:39:20;;;;;;;5.70;1.60;;;20.20;54.70;;;;;;5054525;28;20029;-67
2022/05/09 10:41:50;;;;;;;2.83;1.00;;;20.40;54.90;;;;;;5054711;28;20473;-67
2022/05/09 10:44:43;;;;;;;6.75;1.10;;;20.50;55.00;;;;;;5052253;28;20079;-67
2022/05/09 10:47:27;;;;;;;5.88;1.30;;;20.70;54.70;;;;;;5054435;28;20025;-67
2022/05/09 10:50:18;;;;;;;8.15;2.38;;;20.80;54.40;;;;;;5054433;28;20063;-67
2022/05/09 10:53:07;;;;;;;3.92;1.20;;;20.90;52.10;;;;;;5054409;28;20033;-67
2022/05/09 10:55:40;;;;;;;4.63;1.60;;;21.00;52.40;;;;;;5054413;28;20049;-67
2022/05/09 10:58:15;;;;;;;5.65;1.73;;;21.10;50.40;;;;;;5052321;28;20021;-67
2022/05/09 11:00:50;;;;;;;7.93;2.60;;;21.20;50.70;;;;;;5052364;28;20047;-67
2022/05/09 11:03:24;;;;;;;7.82;2.00;;;21.30;49.00;;;;;;5069608;28;20044;-67
2022/05/09 11:06:04;;;;;;;8.80;2.28;;;21.30;49.10;;;;;;5053622;28;20025;-67
2022/05/09 11:08:57;;;;;;;3.20;1.23;;;21.30;48.60;;;;;;5053487;28;20369;-67
2022/05/09 11:11:45;;;;;;;4.57;2.10;;;21.50;49.40;;;;;;5052885;28;20025;-67
2022/05/09 11:14:13;;;;;;;5.55;1.98;;;21.60;48.30;;;;;;5052287;28;20029;-67
2022/05/09 11:17:04;;;;;;;3.50;1.10;;;21.70;48.40;;;;;;5052278;28;20025;-67
2022/05/09 11:19:56;;;;;;;5.55;1.60;;;21.90;48.10;;;;;;5049614;28;20102;-68
2022/05/09 11:22:38;;;;;;;3.13;1.20;;;22.10;47.50;;;;;;5049339;28;20021;-67
2022/05/09 11:25:32;;;;;;;3.35;1.08;;;22.30;47.50;;;;;;5049883;28;20127;-67
2022/05/09 11:28:13;;;;;;;1.50;0.63;;;22.60;47.60;;;;;;5048858;28;20055;-67
2022/05/09 11:30:45;;;;;;;2.60;0.85;;;22.80;47.70;;;;;;5033382;28;20070;-67
2022/05/09 11:33:19;;;;;;;5.45;1.20;;;23.00;47.80;;;;;;5033114;28;20041;-67
2022/05/09 11:35:48;;;;;;;2.90;1.08;;;23.20;47.40;;;;;;5042074;28;20013;-67
2022/05/09 11:38:26;;;;;;;2.97;1.00;;;23.50;47.10;;;;;;5053452;28;20025;-66
2022/05/09 11:41:21;;;;;;;4.88;1.45;;;23.70;46.90;;;;;;5053489;28;20029;-66
2022/05/09 11:44:10;;;;;;;5.65;2.15;;;23.80;45.20;;;;;;5053406;28;20095;-66
2022/05/09 11:47:15;;;;;;;4.07;1.58;;;23.70;44.10;;;;;;5053240;28;20389;-67
2022/05/09 11:50:03;;;;;;;3.42;1.23;;;23.70;44.40;;;;;;5053318;28;20488;-67
2022/05/09 11:52:35;;;;;;;4.93;2.22;;;24.00;44.70;;;;;;5068577;28;20033;-67
2022/05/09 11:55:22;;;;;;;9.68;2.88;;;24.00;43.70;;;;;;5052875;28;20040;-66
2022/05/09 11:57:55;;;;;;;6.68;2.20;;;23.90;43.40;;;;;;5053160;28;20017;-66
2022/05/09 12:00:28;;;;;;;6.45;2.90;;;24.00;43.60;;;;;;5053191;28;20021;-67
2022/05/09 12:02:58;;;;;;;6.28;3.17;;;24.10;43.20;;;;;;5053007;28;20013;-67
2022/05/09 12:05:26;;;;;;;5.90;2.35;;;24.00;42.80;;;;;;5052832;28;20069;-67
2022/05/09 12:08:34;;;;;;;3.77;2.00;;;24.00;43.40;;;;;;5052795;28;20021;-67
2022/05/09 12:11:18;;;;;;;9.85;2.70;;;24.20;43.80;;;;;;5050035;28;20037;-67
2022/05/09 12:13:43;;;;;;;3.70;1.55;;;24.40;43.00;;;;;;5052745;28;20025;-67
2022/05/09 12:16:10;;;;;;;5.25;2.03;;;24.70;43.40;;;;;;5052602;28;20025;-67
2022/05/09 12:18:55;;;;;;;6.47;2.05;;;25.00;43.20;;;;;;5052763;28;20021;-66
2022/05/09 12:21:29;;;;;;;3.53;1.52;;;25.20;42.70;;;;;;5052358;28;20029;-67
2022/05/09 12:24:13;;;;;;;4.53;1.27;;;25.40;42.70;;;;;;5052796;28;20029;-67
2022/05/09 12:26:43;;;;;;;5.25;1.95;;;25.90;42.70;;;;;;5067192;28;20032;-66
2022/05/09 12:29:11;;;;;;;;;;;26.00;42.90;;;;;;5052938;28;20362;-67
2022/05/09 12:31:43;;;;;;;5.28;2.08;;;26.10;42.50;;;;;;5052574;28;19959;-67
2022/05/09 12:34:15;;;;;;;3.97;1.50;;;26.30;42.20;;;;;;5052332;28;20024;-67
2022/05/09 12:36:44;;;;;;;3.05;1.48;;;26.70;42.30;;;;;;5067381;28;20373;-67
2022/05/09 12:39:26;;;;;;;3.40;1.48;;;27.00;42.10;;;;;;5052296;28;20021;-67
2022/05/09 12:41:56;;;;;;;3.60;1.63;;;27.20;41.90;;;;;;5052458;28;20051;-67
2022/05/09 12:44:40;;;;;;;5.10;1.95;;;27.30;41.30;;;;;;5052274;28;20424;-67
2022/05/09 12:47:20;;;;;;;4.07;1.98;;;27.40;41.10;;;;;;5052038;28;20079;-67
2022/05/09 12:49:54;;;;;;;7.70;3.40;;;27.60;40.80;;;;;;5052295;28;20036;-67
2022/05/09 12:52:28;;;;;;;8.85;3.35;;;27.50;39.40;;;;;;5052170;28;20075;-67
2022/05/09 12:57:41;;;;;;;5.22;2.40;;;27.10;38.60;;;;;;5050619;28;20078;-68
2022/05/09 13:00:16;;;;;;;4.82;1.60;;;27.00;39.60;;;;;;5050411;28;20012;-67
2022/05/09 13:02:42;;;;;;;6.57;1.60;;;27.30;40.30;;;;;;5050110;28;20148;-67
2022/05/09 13:05:09;;;;;;;4.57;2.40;;;27.60;40.00;;;;;;5050248;28;20502;-67
2022/05/09 13:08:03;;;;;;;4.10;2.03;;;27.80;39.80;;;;;;5050765;28;20031;-68
2022/05/09 13:10:30;;;;;;;7.68;3.75;;;28.10;39.70;;;;;;5051362;28;20029;-68
2022/05/09 13:13:00;;;;;;;6.00;3.00;;;27.40;38.30;;;;;;5051246;28;20387;-68
2022/05/09 13:15:26;;;;;;;4.60;2.33;;;27.20;38.90;;;;;;5051670;28;20017;-67
2022/05/09 13:18:01;;;;;;;4.65;2.58;;;27.40;39.40;;;;;;5051876;28;20021;-68
2022/05/09 13:20:34;;;;;;;5.95;1.95;;;27.80;39.60;;;;;;5051536;28;20045;-68